sensor_id;sensor_type;location;lat;lon;timestamp;temperature;humidity
32293;DHT22;43233;48.608;8.838;2023-07-30T11:20:37;21.00;53.70
32293;DHT22;43233;48.608;8.838;2023-07-30T11:23:17;21.00;53.80
32293;DHT22;43233;48.608;8.838;2023-07-30T11:25:46;21.00;49.20
32293;DHT22;43233;48.608;8.838;2023-07-30T11:28:12;20.90;50.60
32293;DHT22;43233;48.608;8.838;2023-07-30T11:30:38;20.90;51.10
32293;DHT22;43233;48.608;8.838;2023-07-30T11:33:04;21.10;51.90
32293;DHT22;43233;48.608;8.838;2023-07-30T11:35:30;21.30;49.80
32293;DHT22;43233;48.608;8.838;2023-07-30T11:37:55;21.40;48.10
32293;DHT22;43233;48.608;8.838;2023-07-30T11:40:23;21.40;49.60
32293;DHT22;43233;48.608;8.838;2023-07-30T11:42:49;21.50;51.20
32293;DHT22;43233;48.608;8.838;2023-07-30T11:45:19;21.70;50.20
32293;DHT22;43233;48.608;8.838;2023-07-30T11:47:48;21.60;48.40
32293;DHT22;43233;48.608;8.838;2023-07-30T11:50:14;21.60;46.00
32293;DHT22;43233;48.608;8.838;2023-07-30T11:52:56;21.50;46.20
32293;DHT22;43233;48.608;8.838;2023-07-30T11:55:22;21.30;46.90
32293;DHT22;43233;48.608;8.838;2023-07-30T11:57:50;21.30;46.10
32293;DHT22;43233;48.608;8.838;2023-07-30T12:00:16;21.30;47.30
32293;DHT22;43233;48.608;8.838;2023-07-30T12:02:42;21.40;46.50
32293;DHT22;43233;48.608;8.838;2023-07-30T12:05:10;21.50;46.40
32293;DHT22;43233;48.608;8.838;2023-07-30T12:07:40;21.50;47.30
32293;DHT22;43233;48.608;8.838;2023-07-30T12:10:11;21.50;44.80
32293;DHT22;43233;48.608;8.838;2023-07-30T12:12:43;21.60;44.80
32293;DHT22;43233;48.608;8.838;2023-07-30T12:15:12;21.60;47.00
32293;DHT22;43233;48.608;8.838;2023-07-30T12:17:38;21.70;44.70
32293;DHT22;43233;48.608;8.838;2023-07-30T12:20:05;21.70;46.00
32293;DHT22;43233;48.608;8.838;2023-07-30T12:22:35;21.70;45.20
32293;DHT22;43233;48.608;8.838;2023-07-30T12:25:02;21.80;52.90
32293;DHT22;43233;48.608;8.838;2023-07-30T12:27:28;21.90;50.00
32293;DHT22;43233;48.608;8.838;2023-07-30T12:29:54;21.80;50.30
32293;DHT22;43233;48.608;8.838;2023-07-30T12:32:20;21.80;52.80
32293;DHT22;43233;48.608;8.838;2023-07-30T12:34:46;21.80;49.30
32293;DHT22;43233;48.608;8.838;2023-07-30T12:37:11;21.70;48.60
32293;DHT22;43233;48.608;8.838;2023-07-30T12:39:37;21.50;50.20
32293;DHT22;43233;48.608;8.838;2023-07-30T12:42:03;21.30;50.70
32293;DHT22;43233;48.608;8.838;2023-07-30T12:44:28;21.30;51.00
32293;DHT22;43233;48.608;8.838;2023-07-30T12:46:54;21.40;49.80
32293;DHT22;43233;48.608;8.838;2023-07-30T12:49:20;21.40;53.10
32293;DHT22;43233;48.608;8.838;2023-07-30T12:51:45;21.60;50.30
32293;DHT22;43233;48.608;8.838;2023-07-30T12:54:11;21.80;49.70
32293;DHT22;43233;48.608;8.838;2023-07-30T12:56:37;21.90;52.10
32293;DHT22;43233;48.608;8.838;2023-07-30T12:59:02;22.10;50.00
32293;DHT22;43233;48.608;8.838;2023-07-30T13:01:28;22.30;48.60
32293;DHT22;43233;48.608;8.838;2023-07-30T13:03:54;22.40;46.60
32293;DHT22;43233;48.608;8.838;2023-07-30T13:06:23;22.30;46.50
32293;DHT22;43233;48.608;8.838;2023-07-30T13:08:48;22.00;46.90
32293;DHT22;43233;48.608;8.838;2023-07-30T13:11:14;21.80;46.60
32293;DHT22;43233;48.608;8.838;2023-07-30T13:13:40;21.80;49.90
32293;DHT22;43233;48.608;8.838;2023-07-30T13:16:05;21.90;51.50
32293;DHT22;43233;48.608;8.838;2023-07-30T13:18:31;22.10;49.00
32293;DHT22;43233;48.608;8.838;2023-07-30T13:20:57;22.10;46.70
32293;DHT22;43233;48.608;8.838;2023-07-30T13:23:22;22.00;46.40
32293;DHT22;43233;48.608;8.838;2023-07-30T13:25:50;22.00;47.60
32293;DHT22;43233;48.608;8.838;2023-07-30T13:28:16;22.10;46.70
32293;DHT22;43233;48.608;8.838;2023-07-30T13:30:42;22.00;48.70
32293;DHT22;43233;48.608;8.838;2023-07-30T13:33:07;22.20;46.60
32293;DHT22;43233;48.608;8.838;2023-07-30T13:35:33;22.30;46.90
32293;DHT22;43233;48.608;8.838;2023-07-30T13:37:58;22.20;45.90
32293;DHT22;43233;48.608;8.838;2023-07-30T13:40:24;22.20;46.50
32293;DHT22;43233;48.608;8.838;2023-07-30T13:42:50;22.30;45.70
32293;DHT22;43233;48.608;8.838;2023-07-30T13:45:16;22.10;43.90
32293;DHT22;43233;48.608;8.838;2023-07-30T13:47:41;21.70;45.20
32293;DHT22;43233;48.608;8.838;2023-07-30T13:50:07;21.60;47.00
32293;DHT22;43233;48.608;8.838;2023-07-30T13:52:33;21.60;46.70
32293;DHT22;43233;48.608;8.838;2023-07-30T13:54:59;21.60;45.60
32293;DHT22;43233;48.608;8.838;2023-07-30T13:57:25;21.40;47.40
32293;DHT22;43233;48.608;8.838;2023-07-30T13:59:52;21.40;46.30
32293;DHT22;43233;48.608;8.838;2023-07-30T14:02:18;21.40;45.90
32293;DHT22;43233;48.608;8.838;2023-07-30T14:04:44;21.50;47.40
32293;DHT22;43233;48.608;8.838;2023-07-30T14:07:09;21.50;47.90
32293;DHT22;43233;48.608;8.838;2023-07-30T14:09:35;21.60;47.20
32293;DHT22;43233;48.608;8.838;2023-07-30T14:12:03;21.70;46.70
32293;DHT22;43233;48.608;8.838;2023-07-30T14:14:28;21.70;45.90
32293;DHT22;43233;48.608;8.838;2023-07-30T14:16:54;21.90;46.90
32293;DHT22;43233;48.608;8.838;2023-07-30T14:19:20;22.00;45.10
32293;DHT22;43233;48.608;8.838;2023-07-30T14:21:46;22.00;45.70
32293;DHT22;43233;48.608;8.838;2023-07-30T14:24:12;22.00;43.50
32293;DHT22;43233;48.608;8.838;2023-07-30T14:26:39;21.70;44.10
32293;DHT22;43233;48.608;8.838;2023-07-30T14:29:05;21.50;43.60
32293;DHT22;43233;48.608;8.838;2023-07-30T14:31:31;21.40;45.20
32293;DHT22;43233;48.608;8.838;2023-07-30T14:33:56;21.40;46.80
32293;DHT22;43233;48.608;8.838;2023-07-30T14:36:23;21.50;44.70
32293;DHT22;43233;48.608;8.838;2023-07-30T14:38:48;21.60;43.70
32293;DHT22;43233;48.608;8.838;2023-07-30T14:41:14;21.60;43.20
32293;DHT22;43233;48.608;8.838;2023-07-30T14:43:40;21.60;42.20
32293;DHT22;43233;48.608;8.838;2023-07-30T14:46:05;21.50;40.80
32293;DHT22;43233;48.608;8.838;2023-07-30T14:48:32;21.40;41.80
32293;DHT22;43233;48.608;8.838;2023-07-30T14:50:57;21.30;41.20
32293;DHT22;43233;48.608;8.838;2023-07-30T14:53:23;21.30;42.30
32293;DHT22;43233;48.608;8.838;2023-07-30T14:55:49;21.30;42.50
32293;DHT22;43233;48.608;8.838;2023-07-30T14:58:15;21.30;43.10
32293;DHT22;43233;48.608;8.838;2023-07-30T15:00:40;21.20;43.70
32293;DHT22;43233;48.608;8.838;2023-07-30T15:03:06;21.00;43.10
32293;DHT22;43233;48.608;8.838;2023-07-30T15:05:32;20.90;44.90
32293;DHT22;43233;48.608;8.838;2023-07-30T15:07:59;20.80;44.70
32293;DHT22;43233;48.608;8.838;2023-07-30T15:10:24;20.60;44.20
32293;DHT22;43233;48.608;8.838;2023-07-30T15:12:50;20.60;44.10
32293;DHT22;43233;48.608;8.838;2023-07-30T15:15:16;20.60;45.10
32293;DHT22;43233;48.608;8.838;2023-07-30T15:17:41;20.60;44.30
32293;DHT22;43233;48.608;8.838;2023-07-30T15:20:07;20.40;41.80
32293;DHT22;43233;48.608;8.838;2023-07-30T15:22:33;20.30;43.20
32293;DHT22;43233;48.608;8.838;2023-07-30T15:24:59;20.40;44.10
32293;DHT22;43233;48.608;8.838;2023-07-30T15:27:24;20.50;40.80
32293;DHT22;43233;48.608;8.838;2023-07-30T15:29:50;20.50;40.90
32293;DHT22;43233;48.608;8.838;2023-07-30T15:32:16;20.50;41.10
32293;DHT22;43233;48.608;8.838;2023-07-30T15:34:41;20.60;41.80
32293;DHT22;43233;48.608;8.838;2023-07-30T15:37:08;20.60;39.60
32293;DHT22;43233;48.608;8.838;2023-07-30T15:39:33;20.50;39.50
32293;DHT22;43233;48.608;8.838;2023-07-30T15:42:02;20.40;39.80
32293;DHT22;43233;48.608;8.838;2023-07-30T15:44:28;20.30;38.50
32293;DHT22;43233;48.608;8.838;2023-07-30T15:46:53;20.40;40.00
32293;DHT22;43233;48.608;8.838;2023-07-30T15:49:20;20.50;38.90
32293;DHT22;43233;48.608;8.838;2023-07-30T15:51:45;20.60;38.50
32293;DHT22;43233;48.608;8.838;2023-07-30T15:54:12;20.60;37.50
32293;DHT22;43233;48.608;8.838;2023-07-30T15:56:38;20.50;36.60
32293;DHT22;43233;48.608;8.838;2023-07-30T15:59:03;20.30;36.30
32293;DHT22;43233;48.608;8.838;2023-07-30T16:01:29;20.30;36.90
32293;DHT22;43233;48.608;8.838;2023-07-30T16:03:55;20.20;37.50
32293;DHT22;43233;48.608;8.838;2023-07-30T16:06:23;20.10;36.60
32293;DHT22;43233;48.608;8.838;2023-07-30T16:08:52;20.10;36.70
32293;DHT22;43233;48.608;8.838;2023-07-30T16:11:21;20.10;36.30
32293;DHT22;43233;48.608;8.838;2023-07-30T16:13:47;20.20;37.80
32293;DHT22;43233;48.608;8.838;2023-07-30T16:16:16;20.20;38.20
32293;DHT22;43233;48.608;8.838;2023-07-30T16:18:46;20.20;37.20
32293;DHT22;43233;48.608;8.838;2023-07-30T16:21:12;20.30;37.40
32293;DHT22;43233;48.608;8.838;2023-07-30T16:23:38;20.40;36.20
32293;DHT22;43233;48.608;8.838;2023-07-30T16:26:04;20.30;35.40
32293;DHT22;43233;48.608;8.838;2023-07-30T16:28:31;20.40;36.10
32293;DHT22;43233;48.608;8.838;2023-07-30T16:30:57;20.40;36.10
32293;DHT22;43233;48.608;8.838;2023-07-30T16:33:23;20.20;35.90
32293;DHT22;43233;48.608;8.838;2023-07-30T16:35:50;20.10;36.40
32293;DHT22;43233;48.608;8.838;2023-07-30T16:38:16;20.00;36.70
32293;DHT22;43233;48.608;8.838;2023-07-30T16:40:42;19.90;36.60
32293;DHT22;43233;48.608;8.838;2023-07-30T16:43:09;19.80;35.80
32293;DHT22;43233;48.608;8.838;2023-07-30T16:45:34;19.70;36.30
32293;DHT22;43233;48.608;8.838;2023-07-30T16:48:00;19.70;36.50
32293;DHT22;43233;48.608;8.838;2023-07-30T16:50:26;19.70;36.90
32293;DHT22;43233;48.608;8.838;2023-07-30T16:52:52;19.70;36.70
32293;DHT22;43233;48.608;8.838;2023-07-30T16:55:17;19.70;37.20
32293;DHT22;43233;48.608;8.838;2023-07-30T16:57:43;19.70;38.10
32293;DHT22;43233;48.608;8.838;2023-07-30T17:00:09;19.80;37.90
32293;DHT22;43233;48.608;8.838;2023-07-30T17:02:35;19.90;37.30
32293;DHT22;43233;48.608;8.838;2023-07-30T17:05:00;19.90;36.70
32293;DHT22;43233;48.608;8.838;2023-07-30T17:07:26;20.00;37.20
32293;DHT22;43233;48.608;8.838;2023-07-30T17:09:52;20.00;36.10
32293;DHT22;43233;48.608;8.838;2023-07-30T17:12:17;20.00;36.60
32293;DHT22;43233;48.608;8.838;2023-07-30T17:14:43;20.00;36.40
32293;DHT22;43233;48.608;8.838;2023-07-30T17:17:09;19.90;36.40
32293;DHT22;43233;48.608;8.838;2023-07-30T17:19:35;19.90;37.00
32293;DHT22;43233;48.608;8.838;2023-07-30T17:22:01;19.90;37.70
32293;DHT22;43233;48.608;8.838;2023-07-30T17:24:31;19.80;36.10
32293;DHT22;43233;48.608;8.838;2023-07-30T17:26:57;19.70;36.60
32293;DHT22;43233;48.608;8.838;2023-07-30T17:29:23;19.70;37.10
32293;DHT22;43233;48.608;8.838;2023-07-30T17:31:48;19.60;36.80
32293;DHT22;43233;48.608;8.838;2023-07-30T17:34:14;19.60;37.10
32293;DHT22;43233;48.608;8.838;2023-07-30T17:36:40;19.50;36.40
32293;DHT22;43233;48.608;8.838;2023-07-30T17:39:05;19.40;36.70
32293;DHT22;43233;48.608;8.838;2023-07-30T17:41:31;19.30;37.10
32293;DHT22;43233;48.608;8.838;2023-07-30T17:43:56;19.30;37.20
32293;DHT22;43233;48.608;8.838;2023-07-30T17:46:22;19.30;37.20
32293;DHT22;43233;48.608;8.838;2023-07-30T17:48:48;19.20;38.20
32293;DHT22;43233;48.608;8.838;2023-07-30T17:51:15;19.30;38.50
32293;DHT22;43233;48.608;8.838;2023-07-30T17:53:42;19.30;38.60
32293;DHT22;43233;48.608;8.838;2023-07-30T17:56:08;19.20;38.70
32293;DHT22;43233;48.608;8.838;2023-07-30T17:58:34;19.20;37.80
32293;DHT22;43233;48.608;8.838;2023-07-30T18:01:04;19.10;38.50
32293;DHT22;43233;48.608;8.838;2023-07-30T18:03:30;19.10;38.90
32293;DHT22;43233;48.608;8.838;2023-07-30T18:05:56;19.10;39.50
32293;DHT22;43233;48.608;8.838;2023-07-30T18:08:22;19.00;39.40
32293;DHT22;43233;48.608;8.838;2023-07-30T18:10:47;19.00;39.50
32293;DHT22;43233;48.608;8.838;2023-07-30T18:13:13;18.90;39.80
32293;DHT22;43233;48.608;8.838;2023-07-30T18:15:39;18.90;39.70
32293;DHT22;43233;48.608;8.838;2023-07-30T18:18:04;18.90;39.90
32293;DHT22;43233;48.608;8.838;2023-07-30T18:20:32;18.80;40.40
32293;DHT22;43233;48.608;8.838;2023-07-30T18:22:59;18.80;40.80
32293;DHT22;43233;48.608;8.838;2023-07-30T18:25:25;18.80;40.90
32293;DHT22;43233;48.608;8.838;2023-07-30T18:27:50;18.80;41.30
32293;DHT22;43233;48.608;8.838;2023-07-30T18:30:17;18.80;41.80
32293;DHT22;43233;48.608;8.838;2023-07-30T18:32:43;18.80;42.30
32293;DHT22;43233;48.608;8.838;2023-07-30T18:35:12;18.80;42.20
32293;DHT22;43233;48.608;8.838;2023-07-30T18:37:38;18.80;42.60
32293;DHT22;43233;48.608;8.838;2023-07-30T18:40:05;18.80;42.80
32293;DHT22;43233;48.608;8.838;2023-07-30T18:42:31;18.70;43.00
32293;DHT22;43233;48.608;8.838;2023-07-30T18:44:57;18.60;43.00
32293;DHT22;43233;48.608;8.838;2023-07-30T18:47:23;18.60;43.30
32293;DHT22;43233;48.608;8.838;2023-07-30T18:49:49;18.50;43.60
32293;DHT22;43233;48.608;8.838;2023-07-30T18:52:17;18.50;43.90
32293;DHT22;43233;48.608;8.838;2023-07-30T18:54:42;18.50;44.00
32293;DHT22;43233;48.608;8.838;2023-07-30T18:57:09;18.60;43.80
32293;DHT22;43233;48.608;8.838;2023-07-30T18:59:34;18.60;43.80
32293;DHT22;43233;48.608;8.838;2023-07-30T19:02:00;18.60;43.40
32293;DHT22;43233;48.608;8.838;2023-07-30T19:04:26;18.60;43.70
32293;DHT22;43233;48.608;8.838;2023-07-30T19:06:51;18.70;43.70
32293;DHT22;43233;48.608;8.838;2023-07-30T19:09:17;18.70;43.80
32293;DHT22;43233;48.608;8.838;2023-07-30T19:11:43;18.70;44.20
32293;DHT22;43233;48.608;8.838;2023-07-30T19:14:08;18.70;44.60
32293;DHT22;43233;48.608;8.838;2023-07-30T19:16:34;18.70;44.80
32293;DHT22;43233;48.608;8.838;2023-07-30T19:19:00;18.70;44.80
32293;DHT22;43233;48.608;8.838;2023-07-30T19:21:26;18.70;45.40
32293;DHT22;43233;48.608;8.838;2023-07-30T19:23:52;18.70;45.60
32293;DHT22;43233;48.608;8.838;2023-07-30T19:26:18;18.70;45.90
32293;DHT22;43233;48.608;8.838;2023-07-30T19:28:43;18.60;45.60
32293;DHT22;43233;48.608;8.838;2023-07-30T19:31:09;18.60;45.30
32293;DHT22;43233;48.608;8.838;2023-07-30T19:33:38;18.60;46.10
32293;DHT22;43233;48.608;8.838;2023-07-30T19:36:07;18.50;46.70
32293;DHT22;43233;48.608;8.838;2023-07-30T19:38:33;18.50;47.00
32293;DHT22;43233;48.608;8.838;2023-07-30T19:43:34;18.40;47.30
32293;DHT22;43233;48.608;8.838;2023-07-30T19:46:00;18.40;47.60
32293;DHT22;43233;48.608;8.838;2023-07-30T19:48:26;18.40;47.90
32293;DHT22;43233;48.608;8.838;2023-07-30T19:50:53;18.30;48.10
32293;DHT22;43233;48.608;8.838;2023-07-30T19:53:19;18.20;48.40
32293;DHT22;43233;48.608;8.838;2023-07-30T19:55:45;18.20;48.60
32293;DHT22;43233;48.608;8.838;2023-07-30T19:58:28;18.20;49.00
32293;DHT22;43233;48.608;8.838;2023-07-30T20:00:55;18.10;49.50
32293;DHT22;43233;48.608;8.838;2023-07-30T20:03:22;18.10;49.80
32293;DHT22;43233;48.608;8.838;2023-07-30T20:05:47;18.00;49.70
32293;DHT22;43233;48.608;8.838;2023-07-30T20:08:13;18.00;49.70
32293;DHT22;43233;48.608;8.838;2023-07-30T20:10:39;18.00;49.70
32293;DHT22;43233;48.608;8.838;2023-07-30T20:13:04;17.90;49.90
32293;DHT22;43233;48.608;8.838;2023-07-30T20:15:36;17.90;50.10
32293;DHT22;43233;48.608;8.838;2023-07-30T20:18:03;17.80;50.60
32293;DHT22;43233;48.608;8.838;2023-07-30T20:20:29;17.80;51.00
32293;DHT22;43233;48.608;8.838;2023-07-30T20:23:00;17.70;50.80
32293;DHT22;43233;48.608;8.838;2023-07-30T20:25:26;17.60;51.00
32293;DHT22;43233;48.608;8.838;2023-07-30T20:27:51;17.50;51.30
32293;DHT22;43233;48.608;8.838;2023-07-30T20:30:17;17.40;51.60
32293;DHT22;43233;48.608;8.838;2023-07-30T20:32:43;17.40;51.50
32293;DHT22;43233;48.608;8.838;2023-07-30T20:35:09;17.30;51.70
32293;DHT22;43233;48.608;8.838;2023-07-30T20:37:34;17.20;52.00
32293;DHT22;43233;48.608;8.838;2023-07-30T20:40:00;17.10;52.60
32293;DHT22;43233;48.608;8.838;2023-07-30T20:42:26;17.00;53.20
32293;DHT22;43233;48.608;8.838;2023-07-30T20:44:52;16.90;53.50
32293;DHT22;43233;48.608;8.838;2023-07-30T20:47:17;16.80;54.20
32293;DHT22;43233;48.608;8.838;2023-07-30T20:49:43;16.80;54.20
32293;DHT22;43233;48.608;8.838;2023-07-30T20:52:09;16.90;53.90
32293;DHT22;43233;48.608;8.838;2023-07-30T20:54:35;16.90;53.70
32293;DHT22;43233;48.608;8.838;2023-07-30T20:57:01;17.00;53.50
32293;DHT22;43233;48.608;8.838;2023-07-30T20:59:28;16.80;53.60
32293;DHT22;43233;48.608;8.838;2023-07-30T21:01:54;16.70;53.90
32293;DHT22;43233;48.608;8.838;2023-07-30T21:04:20;16.60;53.70
32293;DHT22;43233;48.608;8.838;2023-07-30T21:06:47;16.50;54.30
32293;DHT22;43233;48.608;8.838;2023-07-30T21:09:12;16.50;54.50
32293;DHT22;43233;48.608;8.838;2023-07-30T21:11:38;16.50;54.80
32293;DHT22;43233;48.608;8.838;2023-07-30T21:14:03;16.60;55.00
32293;DHT22;43233;48.608;8.838;2023-07-30T21:16:29;16.60;54.80
32293;DHT22;43233;48.608;8.838;2023-07-30T21:18:55;16.60;54.90
32293;DHT22;43233;48.608;8.838;2023-07-30T21:21:21;16.60;55.40
32293;DHT22;43233;48.608;8.838;2023-07-30T21:23:46;16.60;55.30
32293;DHT22;43233;48.608;8.838;2023-07-30T21:26:12;16.50;55.40
32293;DHT22;43233;48.608;8.838;2023-07-30T21:28:37;16.60;55.50
32293;DHT22;43233;48.608;8.838;2023-07-30T21:31:04;16.60;55.40
32293;DHT22;43233;48.608;8.838;2023-07-30T21:33:31;16.60;55.40
32293;DHT22;43233;48.608;8.838;2023-07-30T21:35:58;16.60;55.20
32293;DHT22;43233;48.608;8.838;2023-07-30T21:38:24;16.60;55.40
32293;DHT22;43233;48.608;8.838;2023-07-30T21:40:49;16.60;55.60
32293;DHT22;43233;48.608;8.838;2023-07-30T21:43:15;16.50;55.60
32293;DHT22;43233;48.608;8.838;2023-07-30T21:45:41;16.50;55.60
32293;DHT22;43233;48.608;8.838;2023-07-30T21:48:06;16.40;55.60
32293;DHT22;43233;48.608;8.838;2023-07-30T21:50:32;16.40;55.80
32293;DHT22;43233;48.608;8.838;2023-07-30T21:52:57;16.30;56.10
32293;DHT22;43233;48.608;8.838;2023-07-30T21:55:23;16.30;56.20
32293;DHT22;43233;48.608;8.838;2023-07-30T21:57:49;16.30;56.40
32293;DHT22;43233;48.608;8.838;2023-07-30T22:00:15;16.30;56.10
32293;DHT22;43233;48.608;8.838;2023-07-30T22:02:40;16.20;56.00
32293;DHT22;43233;48.608;8.838;2023-07-30T22:05:06;16.20;56.00
32293;DHT22;43233;48.608;8.838;2023-07-30T22:07:32;16.20;55.80
32293;DHT22;43233;48.608;8.838;2023-07-30T22:09:57;16.30;56.00
32293;DHT22;43233;48.608;8.838;2023-07-30T22:12:23;16.20;55.60
32293;DHT22;43233;48.608;8.838;2023-07-30T22:14:49;16.20;55.80
32293;DHT22;43233;48.608;8.838;2023-07-30T22:17:15;16.20;55.80
32293;DHT22;43233;48.608;8.838;2023-07-30T22:19:40;16.20;55.90
32293;DHT22;43233;48.608;8.838;2023-07-30T22:22:06;16.20;55.80
32293;DHT22;43233;48.608;8.838;2023-07-30T22:24:33;16.20;55.80
32293;DHT22;43233;48.608;8.838;2023-07-30T22:26:59;16.20;55.80
32293;DHT22;43233;48.608;8.838;2023-07-30T22:29:24;16.20;55.80
32293;DHT22;43233;48.608;8.838;2023-07-30T22:31:50;16.20;55.70
32293;DHT22;43233;48.608;8.838;2023-07-30T22:34:16;16.20;55.60
32293;DHT22;43233;48.608;8.838;2023-07-30T22:36:41;16.20;55.80
32293;DHT22;43233;48.608;8.838;2023-07-30T22:39:07;16.20;56.10
32293;DHT22;43233;48.608;8.838;2023-07-30T22:41:32;16.20;56.60
32293;DHT22;43233;48.608;8.838;2023-07-30T22:43:58;16.10;56.80
32293;DHT22;43233;48.608;8.838;2023-07-30T22:46:24;16.10;57.40
32293;DHT22;43233;48.608;8.838;2023-07-30T22:48:49;16.00;57.70
32293;DHT22;43233;48.608;8.838;2023-07-30T22:51:15;16.00;58.20
32293;DHT22;43233;48.608;8.838;2023-07-30T22:53:41;15.90;58.60
32293;DHT22;43233;48.608;8.838;2023-07-30T22:56:06;15.90;60.10
32293;DHT22;43233;48.608;8.838;2023-07-30T22:58:32;15.80;60.00
32293;DHT22;43233;48.608;8.838;2023-07-30T23:00:58;15.70;60.70
32293;DHT22;43233;48.608;8.838;2023-07-30T23:03:23;15.60;61.10
32293;DHT22;43233;48.608;8.838;2023-07-30T23:05:49;15.50;61.50
32293;DHT22;43233;48.608;8.838;2023-07-30T23:08:14;15.50;62.10
32293;DHT22;43233;48.608;8.838;2023-07-30T23:10:40;15.50;62.10
32293;DHT22;43233;48.608;8.838;2023-07-30T23:13:06;15.40;62.00
32293;DHT22;43233;48.608;8.838;2023-07-30T23:15:33;15.40;62.10
32293;DHT22;43233;48.608;8.838;2023-07-30T23:17:59;15.50;62.10
32293;DHT22;43233;48.608;8.838;2023-07-30T23:20:25;15.40;61.70
32293;DHT22;43233;48.608;8.838;2023-07-30T23:22:50;15.50;61.80
32293;DHT22;43233;48.608;8.838;2023-07-30T23:25:16;15.50;61.80
32293;DHT22;43233;48.608;8.838;2023-07-30T23:27:42;15.50;61.70
32293;DHT22;43233;48.608;8.838;2023-07-30T23:30:07;15.50;61.60
32293;DHT22;43233;48.608;8.838;2023-07-30T23:32:33;15.60;61.40
32293;DHT22;43233;48.608;8.838;2023-07-30T23:34:59;15.60;61.30
32293;DHT22;43233;48.608;8.838;2023-07-30T23:37:25;15.60;61.20
32293;DHT22;43233;48.608;8.838;2023-07-30T23:39:51;15.60;61.00
32293;DHT22;43233;48.608;8.838;2023-07-30T23:42:18;15.60;61.00
32293;DHT22;43233;48.608;8.838;2023-07-30T23:44:43;15.70;61.50
32293;DHT22;43233;48.608;8.838;2023-07-30T23:47:09;15.70;61.90
32293;DHT22;43233;48.608;8.838;2023-07-30T23:49:35;15.60;62.10
32293;DHT22;43233;48.608;8.838;2023-07-30T23:54:36;15.50;62.80
32293;DHT22;43233;48.608;8.838;2023-07-30T23:57:02;15.40;63.10
32293;DHT22;43233;48.608;8.838;2023-07-30T23:59:29;15.30;63.40
